sensor_id;sensor_type;location;lat;lon;timestamp;temperature;humidity
5675;DHT22;2860;54.284;10.158;2023-04-23T00:00:52;13.80;99.90
5675;DHT22;2860;54.284;10.158;2023-04-23T00:03:20;13.80;99.90
5675;DHT22;2860;54.284;10.158;2023-04-23T00:05:46;13.80;99.90
5675;DHT22;2860;54.284;10.158;2023-04-23T00:08:17;13.80;99.90
5675;DHT22;2860;54.284;10.158;2023-04-23T00:10:42;13.80;99.90
5675;DHT22;2860;54.284;10.158;2023-04-23T00:13:08;13.80;99.90
5675;DHT22;2860;54.284;10.158;2023-04-23T00:15:34;13.80;99.90
5675;DHT22;2860;54.284;10.158;2023-04-23T00:18:00;13.80;99.90
5675;DHT22;2860;54.284;10.158;2023-04-23T00:20:25;13.80;99.90
5675;DHT22;2860;54.284;10.158;2023-04-23T00:22:51;13.80;99.90
5675;DHT22;2860;54.284;10.158;2023-04-23T00:25:16;13.80;99.90
5675;DHT22;2860;54.284;10.158;2023-04-23T00:27:42;13.80;99.90
5675;DHT22;2860;54.284;10.158;2023-04-23T00:30:08;13.70;99.90
5675;DHT22;2860;54.284;10.158;2023-04-23T00:32:34;13.70;99.90
5675;DHT22;2860;54.284;10.158;2023-04-23T00:35:00;13.70;99.90
5675;DHT22;2860;54.284;10.158;2023-04-23T00:37:25;13.70;99.90
5675;DHT22;2860;54.284;10.158;2023-04-23T00:39:51;13.60;99.90
5675;DHT22;2860;54.284;10.158;2023-04-23T00:42:16;13.60;99.90
5675;DHT22;2860;54.284;10.158;2023-04-23T00:44:42;13.60;99.90
5675;DHT22;2860;54.284;10.158;2023-04-23T00:47:08;13.60;99.90
5675;DHT22;2860;54.284;10.158;2023-04-23T00:49:35;13.60;99.90
5675;DHT22;2860;54.284;10.158;2023-04-23T00:52:01;13.60;99.90
5675;DHT22;2860;54.284;10.158;2023-04-23T00:54:27;13.60;99.90
5675;DHT22;2860;54.284;10.158;2023-04-23T00:56:54;13.60;99.90
5675;DHT22;2860;54.284;10.158;2023-04-23T00:59:20;13.50;99.90
5675;DHT22;2860;54.284;10.158;2023-04-23T01:01:46;13.50;99.90
5675;DHT22;2860;54.284;10.158;2023-04-23T01:04:13;13.50;99.90
5675;DHT22;2860;54.284;10.158;2023-04-23T01:06:40;13.50;99.90
5675;DHT22;2860;54.284;10.158;2023-04-23T01:09:07;13.50;99.90
5675;DHT22;2860;54.284;10.158;2023-04-23T01:11:34;13.50;99.90
5675;DHT22;2860;54.284;10.158;2023-04-23T01:14:02;13.50;99.90
5675;DHT22;2860;54.284;10.158;2023-04-23T01:16:27;13.50;99.90
5675;DHT22;2860;54.284;10.158;2023-04-23T01:18:53;13.50;99.90
5675;DHT22;2860;54.284;10.158;2023-04-23T01:21:21;13.50;99.90
5675;DHT22;2860;54.284;10.158;2023-04-23T01:23:48;13.50;99.90
5675;DHT22;2860;54.284;10.158;2023-04-23T01:26:13;13.50;99.90
5675;DHT22;2860;54.284;10.158;2023-04-23T01:28:40;13.50;99.90
5675;DHT22;2860;54.284;10.158;2023-04-23T01:31:07;13.50;99.90
5675;DHT22;2860;54.284;10.158;2023-04-23T01:33:32;13.50;99.90
5675;DHT22;2860;54.284;10.158;2023-04-23T01:35:59;13.50;99.90
5675;DHT22;2860;54.284;10.158;2023-04-23T01:38:26;13.50;99.90
5675;DHT22;2860;54.284;10.158;2023-04-23T01:40:52;13.50;99.90
5675;DHT22;2860;54.284;10.158;2023-04-23T01:43:19;13.40;99.90
5675;DHT22;2860;54.284;10.158;2023-04-23T01:45:45;13.40;99.90
5675;DHT22;2860;54.284;10.158;2023-04-23T01:48:10;13.40;99.90
5675;DHT22;2860;54.284;10.158;2023-04-23T01:50:36;13.40;99.90
5675;DHT22;2860;54.284;10.158;2023-04-23T01:53:03;13.40;99.90
5675;DHT22;2860;54.284;10.158;2023-04-23T01:55:29;13.40;99.90
5675;DHT22;2860;54.284;10.158;2023-04-23T01:57:55;13.40;99.90
5675;DHT22;2860;54.284;10.158;2023-04-23T02:00:21;13.50;99.90
5675;DHT22;2860;54.284;10.158;2023-04-23T02:02:46;13.40;99.90
5675;DHT22;2860;54.284;10.158;2023-04-23T02:05:17;13.20;99.90
5675;DHT22;2860;54.284;10.158;2023-04-23T02:07:44;13.00;99.90
5675;DHT22;2860;54.284;10.158;2023-04-23T02:10:10;12.90;99.90
5675;DHT22;2860;54.284;10.158;2023-04-23T02:12:36;12.70;99.90
5675;DHT22;2860;54.284;10.158;2023-04-23T02:15:02;12.60;99.90
5675;DHT22;2860;54.284;10.158;2023-04-23T02:17:28;12.50;99.90
5675;DHT22;2860;54.284;10.158;2023-04-23T02:19:54;12.40;99.90
5675;DHT22;2860;54.284;10.158;2023-04-23T02:22:22;12.30;99.90
5675;DHT22;2860;54.284;10.158;2023-04-23T02:24:50;12.20;99.90
5675;DHT22;2860;54.284;10.158;2023-04-23T02:27:16;12.20;99.90
5675;DHT22;2860;54.284;10.158;2023-04-23T02:29:41;12.10;99.90
5675;DHT22;2860;54.284;10.158;2023-04-23T02:32:07;12.00;99.90
5675;DHT22;2860;54.284;10.158;2023-04-23T02:34:33;11.90;99.90
5675;DHT22;2860;54.284;10.158;2023-04-23T02:36:58;11.80;99.90
5675;DHT22;2860;54.284;10.158;2023-04-23T02:39:24;11.80;99.90
5675;DHT22;2860;54.284;10.158;2023-04-23T02:41:49;11.70;99.90
5675;DHT22;2860;54.284;10.158;2023-04-23T02:44:15;11.60;99.90
5675;DHT22;2860;54.284;10.158;2023-04-23T02:46:40;11.50;99.90
5675;DHT22;2860;54.284;10.158;2023-04-23T02:49:06;11.40;99.90
5675;DHT22;2860;54.284;10.158;2023-04-23T02:51:32;11.40;99.90
5675;DHT22;2860;54.284;10.158;2023-04-23T02:53:57;11.40;99.90
5675;DHT22;2860;54.284;10.158;2023-04-23T02:56:23;11.40;99.90
5675;DHT22;2860;54.284;10.158;2023-04-23T02:58:49;11.30;99.90
5675;DHT22;2860;54.284;10.158;2023-04-23T03:01:15;11.10;99.90
5675;DHT22;2860;54.284;10.158;2023-04-23T03:03:41;11.10;99.90
5675;DHT22;2860;54.284;10.158;2023-04-23T03:06:07;11.00;99.90
5675;DHT22;2860;54.284;10.158;2023-04-23T03:08:32;10.90;99.90
5675;DHT22;2860;54.284;10.158;2023-04-23T03:10:58;10.80;99.90
5675;DHT22;2860;54.284;10.158;2023-04-23T03:13:24;10.80;99.90
5675;DHT22;2860;54.284;10.158;2023-04-23T03:15:51;10.80;99.90
5675;DHT22;2860;54.284;10.158;2023-04-23T03:18:17;10.70;99.90
5675;DHT22;2860;54.284;10.158;2023-04-23T03:20:43;10.60;99.90
5675;DHT22;2860;54.284;10.158;2023-04-23T03:23:08;10.60;99.90
5675;DHT22;2860;54.284;10.158;2023-04-23T03:25:34;10.60;99.90
5675;DHT22;2860;54.284;10.158;2023-04-23T03:27:59;10.50;99.90
5675;DHT22;2860;54.284;10.158;2023-04-23T03:30:26;10.50;99.90
5675;DHT22;2860;54.284;10.158;2023-04-23T03:32:55;10.40;99.90
5675;DHT22;2860;54.284;10.158;2023-04-23T03:35:21;10.30;99.90
5675;DHT22;2860;54.284;10.158;2023-04-23T03:37:47;10.30;99.90
5675;DHT22;2860;54.284;10.158;2023-04-23T03:40:13;10.20;99.90
5675;DHT22;2860;54.284;10.158;2023-04-23T03:42:39;10.20;99.90
5675;DHT22;2860;54.284;10.158;2023-04-23T03:45:05;10.10;99.90
5675;DHT22;2860;54.284;10.158;2023-04-23T03:47:30;10.10;99.90
5675;DHT22;2860;54.284;10.158;2023-04-23T03:49:56;10.10;99.90
5675;DHT22;2860;54.284;10.158;2023-04-23T03:52:21;10.00;99.90
5675;DHT22;2860;54.284;10.158;2023-04-23T03:54:47;9.90;99.90
5675;DHT22;2860;54.284;10.158;2023-04-23T03:57:13;9.90;99.90
5675;DHT22;2860;54.284;10.158;2023-04-23T03:59:38;9.80;99.90
5675;DHT22;2860;54.284;10.158;2023-04-23T04:02:04;9.80;99.90
5675;DHT22;2860;54.284;10.158;2023-04-23T04:04:30;9.80;99.90
5675;DHT22;2860;54.284;10.158;2023-04-23T04:06:56;9.80;99.90
5675;DHT22;2860;54.284;10.158;2023-04-23T04:09:22;9.80;99.90
5675;DHT22;2860;54.284;10.158;2023-04-23T04:11:48;9.80;99.90
5675;DHT22;2860;54.284;10.158;2023-04-23T04:14:13;9.80;99.90
5675;DHT22;2860;54.284;10.158;2023-04-23T04:16:39;9.80;99.90
5675;DHT22;2860;54.284;10.158;2023-04-23T04:19:05;9.70;99.90
5675;DHT22;2860;54.284;10.158;2023-04-23T04:21:30;9.70;99.90
5675;DHT22;2860;54.284;10.158;2023-04-23T04:23:58;9.70;99.90
5675;DHT22;2860;54.284;10.158;2023-04-23T04:26:26;9.70;99.90
5675;DHT22;2860;54.284;10.158;2023-04-23T04:28:51;9.70;99.90
5675;DHT22;2860;54.284;10.158;2023-04-23T04:31:17;9.70;99.90
5675;DHT22;2860;54.284;10.158;2023-04-23T04:33:44;9.70;99.90
5675;DHT22;2860;54.284;10.158;2023-04-23T04:36:11;9.70;99.90
5675;DHT22;2860;54.284;10.158;2023-04-23T04:38:38;9.70;99.90
5675;DHT22;2860;54.284;10.158;2023-04-23T04:41:03;9.60;99.90
5675;DHT22;2860;54.284;10.158;2023-04-23T04:43:30;9.60;99.90
5675;DHT22;2860;54.284;10.158;2023-04-23T04:45:56;9.60;99.90
5675;DHT22;2860;54.284;10.158;2023-04-23T04:48:23;9.70;99.90
5675;DHT22;2860;54.284;10.158;2023-04-23T04:50:49;9.60;99.90
5675;DHT22;2860;54.284;10.158;2023-04-23T04:53:14;9.70;99.90
5675;DHT22;2860;54.284;10.158;2023-04-23T04:55:40;9.60;99.90
5675;DHT22;2860;54.284;10.158;2023-04-23T04:58:06;9.70;99.90
5675;DHT22;2860;54.284;10.158;2023-04-23T05:00:31;9.60;99.90
5675;DHT22;2860;54.284;10.158;2023-04-23T05:02:57;9.60;99.90
5675;DHT22;2860;54.284;10.158;2023-04-23T05:05:24;9.60;99.90
5675;DHT22;2860;54.284;10.158;2023-04-23T05:07:51;9.60;99.90
5675;DHT22;2860;54.284;10.158;2023-04-23T05:10:18;9.60;99.90
5675;DHT22;2860;54.284;10.158;2023-04-23T05:12:45;9.60;99.90
5675;DHT22;2860;54.284;10.158;2023-04-23T05:15:11;9.60;99.90
5675;DHT22;2860;54.284;10.158;2023-04-23T05:17:41;9.60;99.90
5675;DHT22;2860;54.284;10.158;2023-04-23T05:20:07;9.60;99.90
5675;DHT22;2860;54.284;10.158;2023-04-23T05:22:37;9.50;99.90
5675;DHT22;2860;54.284;10.158;2023-04-23T05:25:04;9.40;99.90
5675;DHT22;2860;54.284;10.158;2023-04-23T05:27:30;9.40;99.90
5675;DHT22;2860;54.284;10.158;2023-04-23T05:29:56;9.40;99.90
5675;DHT22;2860;54.284;10.158;2023-04-23T05:32:21;9.40;99.90
5675;DHT22;2860;54.284;10.158;2023-04-23T05:34:47;9.40;99.90
5675;DHT22;2860;54.284;10.158;2023-04-23T05:37:12;9.40;99.90
5675;DHT22;2860;54.284;10.158;2023-04-23T05:39:38;9.40;99.90
5675;DHT22;2860;54.284;10.158;2023-04-23T05:42:04;9.40;99.90
5675;DHT22;2860;54.284;10.158;2023-04-23T05:44:29;9.30;99.90
5675;DHT22;2860;54.284;10.158;2023-04-23T05:46:55;9.30;99.90
5675;DHT22;2860;54.284;10.158;2023-04-23T05:49:21;9.20;99.90
5675;DHT22;2860;54.284;10.158;2023-04-23T05:51:46;9.30;99.90
5675;DHT22;2860;54.284;10.158;2023-04-23T05:54:12;9.40;99.90
5675;DHT22;2860;54.284;10.158;2023-04-23T05:56:37;9.40;99.90
5675;DHT22;2860;54.284;10.158;2023-04-23T05:59:03;9.60;99.90
5675;DHT22;2860;54.284;10.158;2023-04-23T06:01:28;9.60;99.90
5675;DHT22;2860;54.284;10.158;2023-04-23T06:03:54;9.60;99.90
5675;DHT22;2860;54.284;10.158;2023-04-23T06:06:19;9.70;99.90
5675;DHT22;2860;54.284;10.158;2023-04-23T06:08:45;9.80;99.90
5675;DHT22;2860;54.284;10.158;2023-04-23T06:11:10;9.90;99.90
5675;DHT22;2860;54.284;10.158;2023-04-23T06:13:36;10.00;99.90
5675;DHT22;2860;54.284;10.158;2023-04-23T06:16:06;10.00;99.90
5675;DHT22;2860;54.284;10.158;2023-04-23T06:18:32;10.10;99.90
5675;DHT22;2860;54.284;10.158;2023-04-23T06:20:57;10.10;99.90
5675;DHT22;2860;54.284;10.158;2023-04-23T06:23:25;10.10;99.90
5675;DHT22;2860;54.284;10.158;2023-04-23T06:25:51;10.20;99.90
5675;DHT22;2860;54.284;10.158;2023-04-23T06:28:16;10.20;99.90
5675;DHT22;2860;54.284;10.158;2023-04-23T06:30:42;10.20;99.90
5675;DHT22;2860;54.284;10.158;2023-04-23T06:33:07;10.20;99.90
5675;DHT22;2860;54.284;10.158;2023-04-23T06:35:33;10.20;99.90
5675;DHT22;2860;54.284;10.158;2023-04-23T06:37:59;10.20;99.90
5675;DHT22;2860;54.284;10.158;2023-04-23T06:40:25;10.30;99.90
5675;DHT22;2860;54.284;10.158;2023-04-23T06:42:51;10.40;99.90
5675;DHT22;2860;54.284;10.158;2023-04-23T06:45:17;10.40;99.90
5675;DHT22;2860;54.284;10.158;2023-04-23T06:47:42;10.20;99.90
5675;DHT22;2860;54.284;10.158;2023-04-23T06:50:08;10.20;99.90
5675;DHT22;2860;54.284;10.158;2023-04-23T06:52:33;10.20;99.90
5675;DHT22;2860;54.284;10.158;2023-04-23T06:55:00;10.20;99.90
5675;DHT22;2860;54.284;10.158;2023-04-23T06:57:25;10.20;99.90
5675;DHT22;2860;54.284;10.158;2023-04-23T06:59:51;10.30;99.90
5675;DHT22;2860;54.284;10.158;2023-04-23T07:02:16;10.30;99.90
5675;DHT22;2860;54.284;10.158;2023-04-23T07:04:42;10.40;99.90
5675;DHT22;2860;54.284;10.158;2023-04-23T07:07:07;10.40;99.90
5675;DHT22;2860;54.284;10.158;2023-04-23T07:09:33;10.40;99.90
5675;DHT22;2860;54.284;10.158;2023-04-23T07:11:58;10.50;99.90
5675;DHT22;2860;54.284;10.158;2023-04-23T07:14:24;10.50;99.90
5675;DHT22;2860;54.284;10.158;2023-04-23T07:16:49;10.60;99.90
5675;DHT22;2860;54.284;10.158;2023-04-23T07:19:16;10.70;99.90
5675;DHT22;2860;54.284;10.158;2023-04-23T07:21:41;10.70;99.90
5675;DHT22;2860;54.284;10.158;2023-04-23T07:24:07;10.70;99.90
5675;DHT22;2860;54.284;10.158;2023-04-23T07:26:33;10.80;99.90
5675;DHT22;2860;54.284;10.158;2023-04-23T07:28:58;10.80;99.90
5675;DHT22;2860;54.284;10.158;2023-04-23T07:31:25;10.90;99.90
5675;DHT22;2860;54.284;10.158;2023-04-23T07:33:51;11.20;99.90
5675;DHT22;2860;54.284;10.158;2023-04-23T07:36:16;11.40;99.90
5675;DHT22;2860;54.284;10.158;2023-04-23T07:38:43;11.70;99.90
5675;DHT22;2860;54.284;10.158;2023-04-23T07:41:09;11.90;99.90
5675;DHT22;2860;54.284;10.158;2023-04-23T07:43:34;12.00;99.90
5675;DHT22;2860;54.284;10.158;2023-04-23T07:46:00;12.00;99.90
5675;DHT22;2860;54.284;10.158;2023-04-23T07:48:25;12.00;99.90
5675;DHT22;2860;54.284;10.158;2023-04-23T07:50:51;12.10;99.90
5675;DHT22;2860;54.284;10.158;2023-04-23T07:53:16;12.20;99.90
5675;DHT22;2860;54.284;10.158;2023-04-23T07:55:42;12.20;99.90
5675;DHT22;2860;54.284;10.158;2023-04-23T07:58:07;12.30;99.90
5675;DHT22;2860;54.284;10.158;2023-04-23T08:00:33;12.30;99.90
5675;DHT22;2860;54.284;10.158;2023-04-23T08:03:00;12.30;99.90
5675;DHT22;2860;54.284;10.158;2023-04-23T08:05:25;12.30;99.90
5675;DHT22;2860;54.284;10.158;2023-04-23T08:07:51;12.30;99.90
5675;DHT22;2860;54.284;10.158;2023-04-23T08:10:16;12.50;99.90
5675;DHT22;2860;54.284;10.158;2023-04-23T08:12:43;12.80;99.90
5675;DHT22;2860;54.284;10.158;2023-04-23T08:15:09;12.90;99.90
5675;DHT22;2860;54.284;10.158;2023-04-23T08:17:35;12.90;99.90
5675;DHT22;2860;54.284;10.158;2023-04-23T08:20:01;12.90;99.90
5675;DHT22;2860;54.284;10.158;2023-04-23T08:22:28;12.60;99.90
5675;DHT22;2860;54.284;10.158;2023-04-23T08:24:53;12.40;99.90
5675;DHT22;2860;54.284;10.158;2023-04-23T08:27:19;12.30;99.90
5675;DHT22;2860;54.284;10.158;2023-04-23T08:29:44;12.40;99.90
5675;DHT22;2860;54.284;10.158;2023-04-23T08:32:10;12.40;99.90
5675;DHT22;2860;54.284;10.158;2023-04-23T08:34:36;12.70;99.90
5675;DHT22;2860;54.284;10.158;2023-04-23T08:37:01;13.00;99.90
5675;DHT22;2860;54.284;10.158;2023-04-23T08:39:27;12.90;99.90
5675;DHT22;2860;54.284;10.158;2023-04-23T08:41:54;12.90;99.90
5675;DHT22;2860;54.284;10.158;2023-04-23T08:44:23;13.00;99.90
5675;DHT22;2860;54.284;10.158;2023-04-23T08:46:49;13.30;99.90
5675;DHT22;2860;54.284;10.158;2023-04-23T08:49:17;13.30;99.90
5675;DHT22;2860;54.284;10.158;2023-04-23T08:51:51;13.10;99.90
5675;DHT22;2860;54.284;10.158;2023-04-23T08:54:21;13.10;99.90
5675;DHT22;2860;54.284;10.158;2023-04-23T08:56:50;13.10;99.90
5675;DHT22;2860;54.284;10.158;2023-04-23T08:59:17;13.30;99.90
5675;DHT22;2860;54.284;10.158;2023-04-23T09:01:43;13.50;99.90
5675;DHT22;2860;54.284;10.158;2023-04-23T09:04:08;13.80;99.90
5675;DHT22;2860;54.284;10.158;2023-04-23T09:06:35;14.10;99.90
5675;DHT22;2860;54.284;10.158;2023-04-23T09:09:02;14.30;99.90
5675;DHT22;2860;54.284;10.158;2023-04-23T09:11:29;14.50;99.90
5675;DHT22;2860;54.284;10.158;2023-04-23T09:13:55;14.30;99.90
5675;DHT22;2860;54.284;10.158;2023-04-23T09:16:21;14.00;99.90
5675;DHT22;2860;54.284;10.158;2023-04-23T09:18:46;13.90;99.90
5675;DHT22;2860;54.284;10.158;2023-04-23T09:21:14;14.00;99.90
5675;DHT22;2860;54.284;10.158;2023-04-23T09:23:39;13.80;99.90
5675;DHT22;2860;54.284;10.158;2023-04-23T09:26:06;13.80;99.90
5675;DHT22;2860;54.284;10.158;2023-04-23T09:28:35;13.70;99.90
5675;DHT22;2860;54.284;10.158;2023-04-23T09:31:01;13.70;99.90
5675;DHT22;2860;54.284;10.158;2023-04-23T09:33:27;13.80;99.90
5675;DHT22;2860;54.284;10.158;2023-04-23T09:35:52;14.10;99.90
5675;DHT22;2860;54.284;10.158;2023-04-23T09:38:18;14.00;99.90
5675;DHT22;2860;54.284;10.158;2023-04-23T09:40:44;14.00;99.90
5675;DHT22;2860;54.284;10.158;2023-04-23T09:43:10;14.00;99.90
5675;DHT22;2860;54.284;10.158;2023-04-23T09:45:36;14.10;99.90
5675;DHT22;2860;54.284;10.158;2023-04-23T09:48:02;14.20;99.90
5675;DHT22;2860;54.284;10.158;2023-04-23T09:50:38;14.50;99.90
5675;DHT22;2860;54.284;10.158;2023-04-23T09:53:05;14.40;99.90
5675;DHT22;2860;54.284;10.158;2023-04-23T09:55:36;14.20;99.90
5675;DHT22;2860;54.284;10.158;2023-04-23T09:58:04;14.20;99.90
5675;DHT22;2860;54.284;10.158;2023-04-23T10:00:37;14.30;99.90
5675;DHT22;2860;54.284;10.158;2023-04-23T10:03:04;14.40;99.90
5675;DHT22;2860;54.284;10.158;2023-04-23T10:05:31;14.50;99.90
5675;DHT22;2860;54.284;10.158;2023-04-23T10:07:57;14.40;99.90
5675;DHT22;2860;54.284;10.158;2023-04-23T10:10:23;14.60;99.90
5675;DHT22;2860;54.284;10.158;2023-04-23T10:12:51;15.00;99.90
5675;DHT22;2860;54.284;10.158;2023-04-23T10:15:18;15.00;99.90
5675;DHT22;2860;54.284;10.158;2023-04-23T10:17:45;15.20;99.90
5675;DHT22;2860;54.284;10.158;2023-04-23T10:20:11;15.40;99.90
5675;DHT22;2860;54.284;10.158;2023-04-23T10:22:37;15.60;99.90
5675;DHT22;2860;54.284;10.158;2023-04-23T10:25:08;16.00;99.90
5675;DHT22;2860;54.284;10.158;2023-04-23T10:27:40;16.20;99.90
5675;DHT22;2860;54.284;10.158;2023-04-23T10:30:08;16.20;99.90
5675;DHT22;2860;54.284;10.158;2023-04-23T10:32:34;16.00;99.90
5675;DHT22;2860;54.284;10.158;2023-04-23T10:35:00;15.90;99.90
5675;DHT22;2860;54.284;10.158;2023-04-23T10:37:26;15.90;99.90
5675;DHT22;2860;54.284;10.158;2023-04-23T10:40:00;15.90;99.90
5675;DHT22;2860;54.284;10.158;2023-04-23T10:42:28;16.10;99.90
5675;DHT22;2860;54.284;10.158;2023-04-23T10:44:55;16.50;99.90
5675;DHT22;2860;54.284;10.158;2023-04-23T10:47:23;16.70;99.90
5675;DHT22;2860;54.284;10.158;2023-04-23T10:49:48;16.90;99.90
5675;DHT22;2860;54.284;10.158;2023-04-23T10:52:15;17.20;99.90
5675;DHT22;2860;54.284;10.158;2023-04-23T10:54:51;17.50;99.90
5675;DHT22;2860;54.284;10.158;2023-04-23T10:57:20;17.70;99.90
5675;DHT22;2860;54.284;10.158;2023-04-23T10:59:53;17.90;99.90
5675;DHT22;2860;54.284;10.158;2023-04-23T11:02:22;17.80;99.90
5675;DHT22;2860;54.284;10.158;2023-04-23T11:04:55;17.80;99.90
5675;DHT22;2860;54.284;10.158;2023-04-23T11:07:31;18.00;99.90
5675;DHT22;2860;54.284;10.158;2023-04-23T11:10:12;18.10;99.90
5675;DHT22;2860;54.284;10.158;2023-04-23T11:12:39;17.90;99.90
5675;DHT22;2860;54.284;10.158;2023-04-23T11:15:16;18.10;99.90
5675;DHT22;2860;54.284;10.158;2023-04-23T11:20:09;18.20;99.90
5675;DHT22;2860;54.284;10.158;2023-04-23T11:22:36;18.30;99.90
5675;DHT22;2860;54.284;10.158;2023-04-23T11:25:02;18.40;99.90
5675;DHT22;2860;54.284;10.158;2023-04-23T11:27:29;18.30;99.90
5675;DHT22;2860;54.284;10.158;2023-04-23T11:29:56;18.60;99.90
5675;DHT22;2860;54.284;10.158;2023-04-23T11:32:22;18.70;99.90
5675;DHT22;2860;54.284;10.158;2023-04-23T11:34:49;18.70;99.90
5675;DHT22;2860;54.284;10.158;2023-04-23T11:37:16;18.50;99.90
5675;DHT22;2860;54.284;10.158;2023-04-23T11:39:43;18.30;99.90
5675;DHT22;2860;54.284;10.158;2023-04-23T11:42:13;18.00;99.90
5675;DHT22;2860;54.284;10.158;2023-04-23T11:44:40;18.10;99.90
5675;DHT22;2860;54.284;10.158;2023-04-23T11:47:10;18.20;99.90
5675;DHT22;2860;54.284;10.158;2023-04-23T11:49:37;17.90;99.90
5675;DHT22;2860;54.284;10.158;2023-04-23T11:52:04;17.90;99.90
5675;DHT22;2860;54.284;10.158;2023-04-23T11:54:30;17.80;99.90
5675;DHT22;2860;54.284;10.158;2023-04-23T11:56:56;17.80;99.90
5675;DHT22;2860;54.284;10.158;2023-04-23T11:59:22;17.80;99.90
5675;DHT22;2860;54.284;10.158;2023-04-23T12:01:49;18.00;99.90
5675;DHT22;2860;54.284;10.158;2023-04-23T12:04:21;18.10;99.90
5675;DHT22;2860;54.284;10.158;2023-04-23T12:06:48;18.10;99.90
5675;DHT22;2860;54.284;10.158;2023-04-23T12:09:15;18.10;99.90
5675;DHT22;2860;54.284;10.158;2023-04-23T12:11:42;18.30;99.90
5675;DHT22;2860;54.284;10.158;2023-04-23T12:14:09;18.40;99.90
5675;DHT22;2860;54.284;10.158;2023-04-23T12:16:37;18.60;99.90
5675;DHT22;2860;54.284;10.158;2023-04-23T12:19:04;18.80;99.90
5675;DHT22;2860;54.284;10.158;2023-04-23T12:21:31;19.10;99.90
5675;DHT22;2860;54.284;10.158;2023-04-23T12:23:57;19.00;99.90
5675;DHT22;2860;54.284;10.158;2023-04-23T12:26:24;19.10;99.90
5675;DHT22;2860;54.284;10.158;2023-04-23T12:28:51;19.40;99.90
5675;DHT22;2860;54.284;10.158;2023-04-23T12:31:21;19.70;99.90
5675;DHT22;2860;54.284;10.158;2023-04-23T12:33:51;19.60;99.90
5675;DHT22;2860;54.284;10.158;2023-04-23T12:36:17;19.60;99.90
5675;DHT22;2860;54.284;10.158;2023-04-23T12:38:43;19.40;99.90
5675;DHT22;2860;54.284;10.158;2023-04-23T12:41:08;19.50;99.90
5675;DHT22;2860;54.284;10.158;2023-04-23T12:43:34;19.70;99.90
5675;DHT22;2860;54.284;10.158;2023-04-23T12:46:00;19.90;99.90
5675;DHT22;2860;54.284;10.158;2023-04-23T12:48:26;19.70;99.90
5675;DHT22;2860;54.284;10.158;2023-04-23T12:50:51;19.50;99.90
5675;DHT22;2860;54.284;10.158;2023-04-23T12:53:17;19.40;99.90
5675;DHT22;2860;54.284;10.158;2023-04-23T12:55:42;19.20;99.90
5675;DHT22;2860;54.284;10.158;2023-04-23T12:58:09;18.90;99.90
5675;DHT22;2860;54.284;10.158;2023-04-23T13:00:35;18.70;99.90
5675;DHT22;2860;54.284;10.158;2023-04-23T13:03:01;18.40;99.90
5675;DHT22;2860;54.284;10.158;2023-04-23T13:05:27;18.30;99.90
5675;DHT22;2860;54.284;10.158;2023-04-23T13:07:52;18.30;99.90
5675;DHT22;2860;54.284;10.158;2023-04-23T13:10:18;18.40;99.90
5675;DHT22;2860;54.284;10.158;2023-04-23T13:12:44;18.70;99.90
5675;DHT22;2860;54.284;10.158;2023-04-23T13:15:10;19.10;99.90
5675;DHT22;2860;54.284;10.158;2023-04-23T13:17:37;19.30;99.90
5675;DHT22;2860;54.284;10.158;2023-04-23T13:20:03;19.20;99.90
5675;DHT22;2860;54.284;10.158;2023-04-23T13:22:29;19.10;99.90
5675;DHT22;2860;54.284;10.158;2023-04-23T13:24:55;19.10;99.90
5675;DHT22;2860;54.284;10.158;2023-04-23T13:27:23;19.30;99.90
5675;DHT22;2860;54.284;10.158;2023-04-23T13:29:49;19.30;99.90
5675;DHT22;2860;54.284;10.158;2023-04-23T13:32:14;19.10;99.90
5675;DHT22;2860;54.284;10.158;2023-04-23T13:34:41;19.10;99.90
5675;DHT22;2860;54.284;10.158;2023-04-23T13:37:06;18.90;99.90
5675;DHT22;2860;54.284;10.158;2023-04-23T13:39:34;19.00;99.90
5675;DHT22;2860;54.284;10.158;2023-04-23T13:42:00;18.90;99.90
5675;DHT22;2860;54.284;10.158;2023-04-23T13:44:26;19.00;99.90
5675;DHT22;2860;54.284;10.158;2023-04-23T13:46:51;19.10;99.90
5675;DHT22;2860;54.284;10.158;2023-04-23T13:49:17;19.20;99.90
5675;DHT22;2860;54.284;10.158;2023-04-23T13:51:42;19.20;99.90
5675;DHT22;2860;54.284;10.158;2023-04-23T13:54:08;19.10;99.90
5675;DHT22;2860;54.284;10.158;2023-04-23T13:56:33;19.00;99.90
5675;DHT22;2860;54.284;10.158;2023-04-23T13:58:59;18.90;99.90
5675;DHT22;2860;54.284;10.158;2023-04-23T14:01:27;18.90;99.90
5675;DHT22;2860;54.284;10.158;2023-04-23T14:03:53;19.00;99.90
5675;DHT22;2860;54.284;10.158;2023-04-23T14:06:18;19.10;99.90
5675;DHT22;2860;54.284;10.158;2023-04-23T14:08:44;19.20;99.90
5675;DHT22;2860;54.284;10.158;2023-04-23T14:11:09;19.20;99.90
5675;DHT22;2860;54.284;10.158;2023-04-23T14:13:35;19.20;99.90
5675;DHT22;2860;54.284;10.158;2023-04-23T14:16:01;19.20;99.90
5675;DHT22;2860;54.284;10.158;2023-04-23T14:18:27;19.10;99.90
5675;DHT22;2860;54.284;10.158;2023-04-23T14:20:52;19.00;99.90
5675;DHT22;2860;54.284;10.158;2023-04-23T14:25:46;18.70;99.90
5675;DHT22;2860;54.284;10.158;2023-04-23T14:28:45;18.60;99.90
5675;DHT22;2860;54.284;10.158;2023-04-23T14:31:11;18.30;99.90
5675;DHT22;2860;54.284;10.158;2023-04-23T14:33:36;18.30;99.90
5675;DHT22;2860;54.284;10.158;2023-04-23T14:36:02;18.40;99.90
5675;DHT22;2860;54.284;10.158;2023-04-23T14:38:27;18.70;99.90
5675;DHT22;2860;54.284;10.158;2023-04-23T14:40:54;19.20;99.90
5675;DHT22;2860;54.284;10.158;2023-04-23T14:43:19;19.30;99.90
5675;DHT22;2860;54.284;10.158;2023-04-23T14:45:45;19.30;99.90
5675;DHT22;2860;54.284;10.158;2023-04-23T14:48:11;19.20;99.90
5675;DHT22;2860;54.284;10.158;2023-04-23T14:50:37;19.30;99.90
5675;DHT22;2860;54.284;10.158;2023-04-23T14:53:02;19.40;99.90
5675;DHT22;2860;54.284;10.158;2023-04-23T14:55:32;19.50;99.90
5675;DHT22;2860;54.284;10.158;2023-04-23T14:57:58;19.60;99.90
5675;DHT22;2860;54.284;10.158;2023-04-23T15:00:23;19.60;99.90
5675;DHT22;2860;54.284;10.158;2023-04-23T15:02:49;19.70;99.90
5675;DHT22;2860;54.284;10.158;2023-04-23T15:05:14;19.70;99.90
5675;DHT22;2860;54.284;10.158;2023-04-23T15:07:41;19.90;99.90
5675;DHT22;2860;54.284;10.158;2023-04-23T15:10:07;19.90;99.90
5675;DHT22;2860;54.284;10.158;2023-04-23T15:17:38;20.10;99.90
5675;DHT22;2860;54.284;10.158;2023-04-23T15:20:04;20.10;99.90
5675;DHT22;2860;54.284;10.158;2023-04-23T15:22:30;19.90;99.90
5675;DHT22;2860;54.284;10.158;2023-04-23T15:24:56;19.60;99.90
5675;DHT22;2860;54.284;10.158;2023-04-23T15:27:22;19.40;99.90
5675;DHT22;2860;54.284;10.158;2023-04-23T15:29:48;19.20;99.90
5675;DHT22;2860;54.284;10.158;2023-04-23T15:32:14;19.10;99.90
5675;DHT22;2860;54.284;10.158;2023-04-23T15:34:41;19.20;99.90
5675;DHT22;2860;54.284;10.158;2023-04-23T15:37:06;19.20;99.90
5675;DHT22;2860;54.284;10.158;2023-04-23T15:39:32;19.10;99.90
5675;DHT22;2860;54.284;10.158;2023-04-23T15:41:57;19.00;99.90
5675;DHT22;2860;54.284;10.158;2023-04-23T15:44:23;18.80;99.90
5675;DHT22;2860;54.284;10.158;2023-04-23T15:46:50;18.70;99.90
5675;DHT22;2860;54.284;10.158;2023-04-23T15:49:16;18.60;99.90
5675;DHT22;2860;54.284;10.158;2023-04-23T15:51:41;18.30;99.90